Time;durP1;ratioP1;P1;durP2;ratioP2;P2;SDS_P1;SDS_P2;PMS_P1;PMS_P2;Temp;Humidity;BMP_temperature;BMP_pressure;BME280_temperature;BME280_humidity;BME280_pressure;Samples;Min_cycle;Max_cycle;Signal;HPM_P1;HPM_P2
2021/05/20 00:00:48;;;;;;;0.50;0.50;;;12.20;99.90;;;;;;5032664;28;20056;-75
2021/05/20 00:03:13;;;;;;;5.07;2.78;;;12.20;99.90;;;;;;5013538;28;20107;-75
2021/05/20 00:05:39;;;;;;;6.65;4.35;;;12.20;99.90;;;;;;5014703;28;20033;-74
2021/05/20 00:08:05;;;;;;;2.75;2.55;;;12.20;99.90;;;;;;5031221;28;20104;-74
2021/05/20 00:10:31;;;;;;;1.75;1.20;;;12.20;99.90;;;;;;5040583;28;20027;-74
2021/05/20 00:12:57;;;;;;;0.93;0.93;;;12.20;99.90;;;;;;5030188;28;20478;-75
2021/05/20 00:15:23;;;;;;;1.60;1.40;;;12.20;99.90;;;;;;5038008;28;20473;-74
2021/05/20 00:17:48;;;;;;;2.47;2.28;;;12.10;99.90;;;;;;5050994;28;20711;-75
2021/05/20 00:20:14;;;;;;;0.57;0.57;;;12.10;99.90;;;;;;5042894;28;20027;-75
2021/05/20 00:22:41;;;;;;;1.42;0.65;;;12.10;99.90;;;;;;5032177;28;20104;-74
2021/05/20 00:25:07;;;;;;;0.40;0.40;;;12.30;99.90;;;;;;5031386;28;20087;-75
2021/05/20 00:27:33;;;;;;;0.25;0.25;;;12.40;99.90;;;;;;5013579;28;20459;-75
2021/05/20 00:29:59;;;;;;;0.30;0.30;;;12.50;99.90;;;;;;5032144;28;20032;-75
2021/05/20 00:32:25;;;;;;;0.55;0.40;;;12.60;99.90;;;;;;5031280;28;20418;-75
2021/05/20 00:34:51;;;;;;;0.75;0.40;;;12.60;99.90;;;;;;5013928;28;20029;-75
2021/05/20 00:37:17;;;;;;;1.50;0.52;;;12.60;99.90;;;;;;5031240;28;20079;-74
2021/05/20 00:39:43;;;;;;;0.40;0.40;;;12.50;99.90;;;;;;5031432;28;20382;-76
2021/05/20 00:42:12;;;;;;;1.27;0.52;;;12.60;98.70;;;;;;5034019;28;20025;-76
2021/05/20 00:44:50;;;;;;;0.38;0.38;;;12.70;97.50;;;;;;5050612;28;20032;-75
2021/05/20 00:47:26;;;;;;;0.30;0.30;;;12.80;96.90;;;;;;5051050;28;20047;-74
2021/05/20 00:49:52;;;;;;;0.50;0.50;;;12.80;96.10;;;;;;5032773;28;20359;-75
2021/05/20 00:52:17;;;;;;;1.30;0.50;;;13.00;92.30;;;;;;5033249;28;20040;-75
2021/05/20 00:54:44;;;;;;;0.50;0.50;;;13.10;92.50;;;;;;5051205;28;20032;-75
2021/05/20 00:57:11;;;;;;;0.28;0.28;;;13.10;92.10;;;;;;5050734;28;20025;-75
2021/05/20 00:59:37;;;;;;;0.85;0.40;;;13.30;89.80;;;;;;5051359;28;20074;-74
2021/05/20 01:02:03;;;;;;;0.50;0.50;;;13.40;87.90;;;;;;5050883;28;20036;-75
2021/05/20 01:04:29;;;;;;;0.95;0.30;;;13.40;86.20;;;;;;5050371;28;20021;-75
2021/05/20 01:06:54;;;;;;;0.60;0.35;;;13.50;84.90;;;;;;5051120;28;20021;-74
2021/05/20 01:09:20;;;;;;;2.38;0.50;;;13.50;83.90;;;;;;5051133;28;20487;-74
2021/05/20 01:11:47;;;;;;;0.30;0.30;;;13.60;81.00;;;;;;5053566;28;20147;-76
2021/05/20 01:14:12;;;;;;;1.38;0.77;;;13.70;78.20;;;;;;5053216;28;20021;-76
2021/05/20 01:16:38;;;;;;;0.60;0.50;;;13.80;78.50;;;;;;5053639;28;20025;-76
2021/05/20 01:19:08;;;;;;;0.20;0.20;;;13.80;77.50;;;;;;5035648;28;20040;-76
2021/05/20 01:21:34;;;;;;;0.30;0.30;;;13.90;74.60;;;;;;5053746;28;20031;-76
2021/05/20 01:24:00;;;;;;;0.40;0.40;;;13.90;75.00;;;;;;5053343;28;20082;-76
2021/05/20 01:26:28;;;;;;;0.30;0.30;;;14.00;73.10;;;;;;5053524;28;20025;-76
2021/05/20 01:28:54;;;;;;;0.22;0.20;;;14.00;74.10;;;;;;5035869;28;20099;-76
2021/05/20 01:31:20;;;;;;;0.40;0.40;;;14.00;71.80;;;;;;5053534;28;20466;-76
2021/05/20 01:33:46;;;;;;;2.65;0.30;;;14.00;72.60;;;;;;5035462;28;20025;-76
2021/05/20 01:36:12;;;;;;;0.30;0.30;;;14.10;70.50;;;;;;5053234;28;20053;-76
2021/05/20 01:41:06;;;;;;;0.68;0.30;;;14.10;70.30;;;;;;5053318;28;20111;-76
2021/05/20 01:43:33;;;;;;;1.45;0.50;;;14.10;70.60;;;;;;5053173;28;20471;-76
2021/05/20 01:46:00;;;;;;;0.30;0.30;;;14.10;70.90;;;;;;5053094;28;20029;-76
2021/05/20 01:48:27;;;;;;;0.47;0.30;;;14.10;68.60;;;;;;5053210;28;20428;-76
2021/05/20 01:50:58;;;;;;;0.22;0.22;;;14.10;69.40;;;;;;5035200;28;20017;-76
2021/05/20 01:53:24;;;;;;;1.90;0.20;;;14.10;69.10;;;;;;5053089;28;20028;-76
2021/05/20 01:55:50;;;;;;;1.45;0.28;;;14.20;65.30;;;;;;5053178;28;20025;-76
2021/05/20 01:58:16;;;;;;;0.38;0.25;;;14.20;66.70;;;;;;5035103;28;20025;-76
2021/05/20 02:00:42;;;;;;;0.30;0.30;;;14.20;66.70;;;;;;5034996;28;20025;-76
2021/05/20 02:03:08;;;;;;;0.30;0.30;;;14.10;68.30;;;;;;5053074;28;20025;-76
2021/05/20 02:05:33;;;;;;;0.20;0.20;;;14.20;66.60;;;;;;5034898;28;20111;-76
2021/05/20 02:07:59;;;;;;;0.20;0.20;;;14.10;65.90;;;;;;5052842;28;20219;-76
2021/05/20 02:10:25;;;;;;;1.75;0.35;;;14.10;66.90;;;;;;5052694;28;20098;-76
2021/05/20 02:12:50;;;;;;;0.85;0.30;;;14.10;65.30;;;;;;5052895;28;20031;-76
2021/05/20 02:15:16;;;;;;;0.75;0.28;;;14.10;66.00;;;;;;5052530;28;20029;-76
2021/05/20 02:17:42;;;;;;;0.43;0.20;;;14.10;64.70;;;;;;5034777;28;20116;-76
2021/05/20 02:20:09;;;;;;;2.15;0.55;;;14.10;66.50;;;;;;5052799;28;20037;-76
2021/05/20 02:22:35;;;;;;;0.22;0.22;;;14.10;68.20;;;;;;5052638;28;20084;-76
2021/05/20 02:25:01;;;;;;;1.75;0.30;;;14.00;69.50;;;;;;5052876;28;20025;-76
2021/05/20 02:27:27;;;;;;;0.30;0.30;;;14.00;66.40;;;;;;5052674;28;20520;-76
2021/05/20 02:29:53;;;;;;;0.40;0.40;;;14.00;66.20;;;;;;5052463;28;20029;-76
2021/05/20 02:32:18;;;;;;;0.38;0.38;;;14.00;65.80;;;;;;5034514;28;20044;-76
2021/05/20 02:34:44;;;;;;;1.85;0.73;;;14.00;67.90;;;;;;5053710;28;20025;-76
2021/05/20 02:37:10;;;;;;;0.20;0.20;;;14.00;67.50;;;;;;5056250;28;20141;-75
2021/05/20 02:39:36;;;;;;;1.33;0.32;;;13.90;68.60;;;;;;5055809;28;20537;-76
2021/05/20 02:42:01;;;;;;;0.32;0.30;;;13.90;68.00;;;;;;5036270;28;20025;-76
2021/05/20 02:44:27;;;;;;;0.30;0.30;;;13.90;68.40;;;;;;5018436;28;20126;-75
2021/05/20 02:46:53;;;;;;;0.52;0.38;;;13.80;68.80;;;;;;5036648;28;20087;-76
2021/05/20 02:49:19;;;;;;;0.30;0.30;;;13.80;66.60;;;;;;5018754;28;20483;-75
2021/05/20 02:51:44;;;;;;;0.20;0.20;;;13.80;68.80;;;;;;5018688;28;20027;-76
2021/05/20 02:54:10;;;;;;;0.45;0.20;;;13.80;69.50;;;;;;5036509;28;20026;-75
2021/05/20 02:56:36;;;;;;;0.20;0.20;;;13.70;67.40;;;;;;5018542;28;20231;-76
2021/05/20 02:59:01;;;;;;;0.68;0.40;;;13.80;65.50;;;;;;5018382;28;20072;-75
2021/05/20 03:01:27;;;;;;;1.27;0.40;;;13.80;65.90;;;;;;5036569;28;20354;-76
2021/05/20 03:03:53;;;;;;;0.30;0.30;;;13.90;65.80;;;;;;5036296;28;20165;-76
2021/05/20 03:06:19;;;;;;;0.30;0.30;;;13.90;64.30;;;;;;5036244;28;20033;-76
2021/05/20 03:08:44;;;;;;;0.30;0.30;;;13.90;65.00;;;;;;5036293;28;20041;-75
2021/05/20 03:11:10;;;;;;;0.20;0.20;;;13.90;67.00;;;;;;5048491;28;20029;-76
2021/05/20 03:13:36;;;;;;;0.30;0.30;;;13.90;66.30;;;;;;5055880;28;20029;-76
2021/05/20 03:16:02;;;;;;;0.28;0.28;;;13.90;67.40;;;;;;5056154;28;20040;-76
2021/05/20 03:18:27;;;;;;;0.20;0.20;;;13.80;65.60;;;;;;5055979;28;20029;-75
2021/05/20 03:20:53;;;;;;;1.95;0.65;;;13.90;65.50;;;;;;5055799;28;20021;-76
2021/05/20 03:23:19;;;;;;;0.85;0.40;;;13.80;65.60;;;;;;5055721;28;20037;-76
2021/05/20 03:25:45;;;;;;;1.77;0.88;;;13.90;65.50;;;;;;5037917;28;20037;-76
2021/05/20 03:28:10;;;;;;;0.43;0.43;;;13.90;64.60;;;;;;5055591;28;20025;-76
2021/05/20 03:30:36;;;;;;;1.80;0.50;;;13.90;65.50;;;;;;5055525;28;20382;-75
2021/05/20 03:33:02;;;;;;;0.38;0.38;;;13.90;65.30;;;;;;5037934;28;20021;-75
2021/05/20 03:35:28;;;;;;;0.75;0.40;;;13.90;65.90;;;;;;5055524;28;20124;-76
2021/05/20 03:37:53;;;;;;;0.75;0.45;;;13.90;66.40;;;;;;5055434;28;20035;-76
2021/05/20 03:40:20;;;;;;;0.22;0.22;;;13.90;65.50;;;;;;5037359;28;20119;-76
2021/05/20 03:42:45;;;;;;;0.60;0.60;;;13.80;65.60;;;;;;5055516;28;20021;-75
2021/05/20 03:45:12;;;;;;;1.00;0.40;;;13.80;66.30;;;;;;5055268;28;20017;-76
2021/05/20 03:47:39;;;;;;;0.40;0.40;;;13.90;65.20;;;;;;5055351;28;20476;-76
2021/05/20 03:50:05;;;;;;;0.60;0.40;;;13.80;65.40;;;;;;5055351;28;20035;-76
2021/05/20 03:52:31;;;;;;;0.30;0.30;;;13.80;66.20;;;;;;5055295;28;20032;-76
2021/05/20 03:54:57;;;;;;;0.30;0.30;;;13.80;64.00;;;;;;5055461;28;20009;-76
2021/05/20 03:57:23;;;;;;;0.25;0.25;;;13.90;64.00;;;;;;5037235;28;20035;-76
2021/05/20 03:59:48;;;;;;;1.13;0.20;;;13.90;62.70;;;;;;5055160;28;20051;-76
2021/05/20 04:02:14;;;;;;;2.13;0.50;;;13.90;62.40;;;;;;5055184;28;20025;-76
2021/05/20 04:04:40;;;;;;;0.30;0.15;;;13.90;62.00;;;;;;5055110;28;20074;-75
2021/05/20 04:07:05;;;;;;;1.27;0.30;;;14.00;61.90;;;;;;5055127;28;20021;-76
2021/05/20 04:09:31;;;;;;;0.30;0.30;;;14.00;63.10;;;;;;5055228;28;20025;-76
2021/05/20 04:11:57;;;;;;;0.30;0.30;;;14.00;64.80;;;;;;5054831;28;20029;-75
2021/05/20 04:14:23;;;;;;;0.30;0.30;;;14.00;63.80;;;;;;5053751;28;20025;-76
2021/05/20 04:16:49;;;;;;;0.20;0.20;;;13.90;64.60;;;;;;5034862;28;20030;-76
2021/05/20 04:19:16;;;;;;;1.38;0.30;;;13.90;64.40;;;;;;5034780;28;20029;-75
2021/05/20 04:21:42;;;;;;;0.55;0.30;;;13.90;64.10;;;;;;5017120;28;20025;-75
2021/05/20 04:24:08;;;;;;;0.63;0.20;;;13.90;65.40;;;;;;5034839;28;20372;-76
2021/05/20 04:26:34;;;;;;;0.30;0.30;;;13.90;65.50;;;;;;5026562;28;20399;-76
2021/05/20 04:29:08;;;;;;;0.40;0.32;;;13.90;66.10;;;;;;5027665;28;20494;-76
2021/05/20 04:31:35;;;;;;;0.40;0.40;;;13.90;66.10;;;;;;5047496;28;20029;-76
2021/05/20 04:34:01;;;;;;;0.45;0.45;;;13.90;65.70;;;;;;5027498;28;20017;-76
2021/05/20 04:36:26;;;;;;;0.20;0.20;;;13.90;65.00;;;;;;5029645;28;20103;-76
2021/05/20 04:38:52;;;;;;;0.30;0.30;;;13.90;66.20;;;;;;5051014;28;20017;-76
2021/05/20 04:41:18;;;;;;;0.30;0.30;;;13.90;65.50;;;;;;5030069;28;20474;-76
2021/05/20 04:43:44;;;;;;;0.47;0.30;;;13.90;65.60;;;;;;5047132;28;20028;-76
2021/05/20 04:46:09;;;;;;;0.30;0.30;;;13.90;65.30;;;;;;5035160;28;20348;-75
2021/05/20 04:48:35;;;;;;;0.88;0.40;;;13.90;66.10;;;;;;5052006;28;20065;-76
2021/05/20 04:51:01;;;;;;;1.75;0.35;;;14.00;65.30;;;;;;5054078;28;20064;-76
2021/05/20 04:53:27;;;;;;;1.95;0.47;;;14.00;66.20;;;;;;5053947;28;20517;-76
2021/05/20 04:55:53;;;;;;;0.20;0.20;;;14.00;68.20;;;;;;5053990;28;20459;-76
2021/05/20 04:58:19;;;;;;;0.90;0.30;;;14.00;66.60;;;;;;5053277;28;20036;-76
2021/05/20 05:00:45;;;;;;;0.28;0.28;;;14.00;67.60;;;;;;5054176;28;20021;-76
2021/05/20 05:03:10;;;;;;;0.80;0.45;;;14.10;65.90;;;;;;5054070;28;20059;-76
2021/05/20 05:05:36;;;;;;;0.95;0.35;;;14.10;65.60;;;;;;5044629;28;20053;-75
2021/05/20 05:08:02;;;;;;;0.20;0.20;;;14.20;64.20;;;;;;5026534;28;20115;-75
2021/05/20 05:10:27;;;;;;;2.45;0.22;;;14.20;66.50;;;;;;5045501;28;20029;-76
2021/05/20 05:12:53;;;;;;;0.40;0.40;;;14.30;66.50;;;;;;5050821;28;20033;-76
2021/05/20 05:15:19;;;;;;;0.77;0.30;;;14.40;64.10;;;;;;5052019;28;20086;-76
2021/05/20 05:17:45;;;;;;;0.13;0.13;;;14.40;63.40;;;;;;5034433;28;20192;-76
2021/05/20 05:20:11;;;;;;;0.60;0.25;;;14.60;64.20;;;;;;5046171;28;20021;-76
2021/05/20 05:22:37;;;;;;;0.30;0.30;;;14.50;64.20;;;;;;5051263;28;20025;-76
2021/05/20 05:25:03;;;;;;;0.20;0.20;;;14.60;65.10;;;;;;5049406;28;20017;-76
2021/05/20 05:27:29;;;;;;;0.30;0.30;;;14.60;63.30;;;;;;5049514;28;20040;-76
2021/05/20 05:29:54;;;;;;;0.60;0.60;;;14.70;62.00;;;;;;5050921;28;20048;-76
2021/05/20 05:32:20;;;;;;;0.35;0.20;;;14.70;63.00;;;;;;5050807;28;20115;-76
2021/05/20 05:34:46;;;;;;;1.35;0.68;;;14.80;63.10;;;;;;5049536;28;20473;-76
2021/05/20 05:37:12;;;;;;;2.47;0.30;;;14.90;62.60;;;;;;5050652;28;20045;-76
2021/05/20 05:39:37;;;;;;;1.15;0.30;;;14.90;62.30;;;;;;5050809;28;20025;-75
2021/05/20 05:42:04;;;;;;;0.22;0.22;;;14.90;62.00;;;;;;5051859;28;20025;-76
2021/05/20 05:44:29;;;;;;;0.20;0.20;;;15.00;63.10;;;;;;5052086;28;20025;-76
2021/05/20 05:46:55;;;;;;;0.30;0.30;;;15.10;63.50;;;;;;5051765;28;20107;-76
2021/05/20 05:50:06;;;;;;;0.20;0.20;;;15.10;59.00;;;;;;5033916;28;20040;-76
2021/05/20 05:52:16;;;;;;;0.20;0.20;;;15.20;62.50;;;;;;5043466;28;20021;-76
2021/05/20 05:54:42;;;;;;;0.20;0.20;;;15.30;61.00;;;;;;5051746;28;20028;-75
2021/05/20 05:57:08;;;;;;;0.30;0.30;;;15.30;61.00;;;;;;5051489;28;20032;-76
2021/05/20 05:59:33;;;;;;;0.20;0.20;;;15.30;64.10;;;;;;5051733;28;20393;-76
2021/05/20 06:01:59;;;;;;;0.20;0.20;;;15.40;64.70;;;;;;5051641;28;20024;-76
2021/05/20 06:04:27;;;;;;;0.47;0.28;;;15.40;63.20;;;;;;5052009;28;20029;-76
2021/05/20 06:06:52;;;;;;;0.10;0.10;;;15.50;63.80;;;;;;5052566;28;20017;-76
2021/05/20 06:09:18;;;;;;;2.50;0.20;;;15.60;59.80;;;;;;5051431;28;20029;-76
2021/05/20 06:11:44;;;;;;;0.45;0.32;;;15.60;60.20;;;;;;5033922;28;20467;-76
2021/05/20 06:14:10;;;;;;;0.20;0.20;;;15.70;60.60;;;;;;5052237;28;20108;-76
2021/05/20 06:16:41;;;;;;;0.40;0.40;;;15.70;60.40;;;;;;5034695;28;20437;-76
2021/05/20 06:19:08;;;;;;;0.35;0.35;;;15.80;59.20;;;;;;5034864;28;20098;-76
2021/05/20 06:21:35;;;;;;;0.80;0.30;;;15.80;62.90;;;;;;5034637;28;20429;-77
2021/05/20 06:24:01;;;;;;;0.63;0.30;;;15.90;62.70;;;;;;5052464;28;20021;-76
2021/05/20 06:26:27;;;;;;;1.13;0.43;;;15.90;62.70;;;;;;5034867;28;20017;-76
2021/05/20 06:28:53;;;;;;;0.20;0.20;;;15.90;61.30;;;;;;5052584;28;20060;-76
2021/05/20 06:31:19;;;;;;;0.20;0.20;;;16.00;64.20;;;;;;5034791;28;20068;-76
2021/05/20 06:33:45;;;;;;;0.30;0.30;;;16.00;62.80;;;;;;5052604;28;20033;-76
2021/05/20 06:36:11;;;;;;;0.30;0.30;;;16.10;61.30;;;;;;5052498;28;20053;-76
2021/05/20 06:38:37;;;;;;;0.20;0.20;;;16.10;59.50;;;;;;5034700;28;20505;-77
2021/05/20 06:41:06;;;;;;;0.28;0.25;;;16.20;59.30;;;;;;5051926;28;20029;-76
2021/05/20 06:43:33;;;;;;;0.30;0.30;;;16.30;60.70;;;;;;5051526;28;20083;-76
2021/05/20 06:45:58;;;;;;;2.50;0.30;;;16.20;58.70;;;;;;5051878;28;20079;-77
2021/05/20 06:48:24;;;;;;;0.85;0.45;;;16.30;63.80;;;;;;5051785;28;20021;-76
2021/05/20 06:50:50;;;;;;;0.95;0.40;;;16.40;59.90;;;;;;5051532;28;20057;-76
2021/05/20 06:53:19;;;;;;;1.38;0.20;;;16.40;58.80;;;;;;5051557;28;20052;-76
2021/05/20 06:55:45;;;;;;;0.30;0.30;;;16.40;60.90;;;;;;5051573;28;20025;-76
2021/05/20 07:00:41;;;;;;;0.52;0.45;;;16.50;60.20;;;;;;5051090;28;20041;-76
2021/05/20 07:03:14;;;;;;;0.20;0.20;;;16.50;61.20;;;;;;5033442;28;20171;-76
2021/05/20 07:05:40;;;;;;;0.30;0.30;;;16.50;57.50;;;;;;5051330;28;20434;-76
2021/05/20 07:08:06;;;;;;;0.30;0.30;;;16.50;60.70;;;;;;5051120;28;20071;-76
2021/05/20 07:10:31;;;;;;;0.20;0.20;;;16.50;61.20;;;;;;5051116;28;20036;-76
2021/05/20 07:13:00;;;;;;;0.28;0.20;;;16.60;57.50;;;;;;5051490;28;20028;-76
2021/05/20 07:15:28;;;;;;;0.20;0.20;;;16.60;58.70;;;;;;5052118;28;20020;-77
2021/05/20 07:17:54;;;;;;;0.20;0.20;;;16.60;61.20;;;;;;5034160;28;20040;-76
2021/05/20 07:20:19;;;;;;;0.20;0.20;;;16.60;59.30;;;;;;5051211;28;20402;-76
2021/05/20 07:22:45;;;;;;;0.20;0.20;;;16.60;56.90;;;;;;5054643;28;20032;-77
2021/05/20 07:25:11;;;;;;;0.45;0.20;;;16.70;59.50;;;;;;5054722;28;20025;-77
2021/05/20 07:27:37;;;;;;;0.38;0.20;;;16.70;60.30;;;;;;5054384;28;20104;-77
2021/05/20 07:30:04;;;;;;;0.20;0.20;;;16.70;60.80;;;;;;5054706;28;20067;-77
2021/05/20 07:32:30;;;;;;;0.20;0.20;;;16.70;60.60;;;;;;5054297;28;20083;-77
2021/05/20 07:34:56;;;;;;;0.35;0.20;;;16.80;58.90;;;;;;5036296;28;20033;-77
2021/05/20 07:37:22;;;;;;;1.73;0.30;;;16.80;59.30;;;;;;5054420;28;20036;-77
2021/05/20 07:39:48;;;;;;;0.75;0.30;;;16.90;61.70;;;;;;5036233;28;20029;-77
2021/05/20 07:42:13;;;;;;;4.22;0.40;;;16.90;63.30;;;;;;5054269;28;20021;-77
2021/05/20 07:44:40;;;;;;;0.25;0.25;;;17.10;62.20;;;;;;5054452;28;20075;-76
2021/05/20 07:47:06;;;;;;;0.30;0.30;;;17.30;61.80;;;;;;5054078;28;20030;-77
2021/05/20 07:49:36;;;;;;;0.30;0.30;;;17.40;59.50;;;;;;5054081;28;20021;-77
2021/05/20 07:52:04;;;;;;;0.32;0.32;;;17.50;57.90;;;;;;5054193;28;20035;-77
2021/05/20 07:54:31;;;;;;;0.13;0.13;;;17.60;54.30;;;;;;5054330;28;20024;-77
2021/05/20 07:56:57;;;;;;;0.65;0.30;;;17.60;54.10;;;;;;5053836;28;20017;-77
2021/05/20 07:59:22;;;;;;;0.40;0.40;;;17.60;54.50;;;;;;5053833;28;20497;-76
2021/05/20 08:04:45;;;;;;;0.38;0.38;;;17.80;55.70;;;;;;5032198;28;20181;-77
2021/05/20 08:12:30;;;;;;;0.30;0.28;;;17.90;53.20;;;;;;5053535;28;20427;-77
2021/05/20 08:14:56;;;;;;;0.30;0.20;;;17.80;55.40;;;;;;5035900;28;20067;-77
2021/05/20 08:17:22;;;;;;;0.20;0.20;;;17.90;57.50;;;;;;5035774;28;20032;-76
2021/05/20 08:19:47;;;;;;;0.47;0.38;;;17.80;52.80;;;;;;5035618;28;20024;-77
2021/05/20 08:22:13;;;;;;;0.30;0.30;;;17.90;52.90;;;;;;5035778;28;20576;-77
2021/05/20 08:24:39;;;;;;;0.98;0.30;;;17.90;53.60;;;;;;5053634;28;20021;-77
2021/05/20 08:27:05;;;;;;;0.32;0.20;;;17.90;54.30;;;;;;5053275;28;20479;-76
2021/05/20 08:29:31;;;;;;;0.20;0.20;;;17.80;54.20;;;;;;5053465;28;20036;-77
2021/05/20 08:31:57;;;;;;;0.30;0.30;;;17.90;53.60;;;;;;5052516;28;20050;-77
2021/05/20 08:34:23;;;;;;;0.30;0.30;;;18.00;52.30;;;;;;5033680;28;20040;-76
2021/05/20 08:36:50;;;;;;;1.35;0.50;;;18.00;52.90;;;;;;5053231;28;20040;-77
2021/05/20 08:39:15;;;;;;;0.43;0.43;;;18.10;57.30;;;;;;5035317;28;20033;-77
2021/05/20 08:41:41;;;;;;;0.40;0.32;;;18.20;58.60;;;;;;5052984;28;20021;-77
2021/05/20 08:44:12;;;;;;;0.45;0.45;;;18.30;55.00;;;;;;5053173;28;20025;-77
2021/05/20 08:46:38;;;;;;;0.98;0.32;;;18.30;54.00;;;;;;5035155;28;20143;-77
2021/05/20 08:49:07;;;;;;;0.52;0.40;;;18.40;56.10;;;;;;5052820;28;20047;-77
2021/05/20 08:51:33;;;;;;;0.35;0.35;;;18.50;56.80;;;;;;5052857;28;20095;-77
2021/05/20 08:53:59;;;;;;;0.28;0.28;;;18.60;56.80;;;;;;5053029;28;20114;-77
2021/05/20 08:56:25;;;;;;;0.68;0.30;;;18.60;55.10;;;;;;5052951;28;20025;-77
2021/05/20 08:58:55;;;;;;;0.22;0.20;;;18.70;53.50;;;;;;5052653;28;20116;-77
2021/05/20 09:01:36;;;;;;;0.50;0.50;;;18.70;53.90;;;;;;5052585;28;20060;-77
2021/05/20 09:04:03;;;;;;;0.28;0.25;;;18.80;52.50;;;;;;5034895;28;20437;-77
2021/05/20 09:07:05;;;;;;;0.32;0.32;;;18.80;52.40;;;;;;5052623;28;20029;-77
2021/05/20 09:09:37;;;;;;;0.20;0.20;;;18.70;50.00;;;;;;5034774;28;20033;-77
2021/05/20 09:12:03;;;;;;;0.63;0.22;;;18.70;50.80;;;;;;5052536;28;20395;-76
2021/05/20 09:14:40;;;;;;;0.20;0.20;;;18.90;52.10;;;;;;5034471;28;20031;-76
2021/05/20 09:17:12;;;;;;;1.42;0.40;;;18.80;51.20;;;;;;5034936;28;20039;-77
2021/05/20 09:19:39;;;;;;;0.38;0.20;;;18.80;53.80;;;;;;5035553;28;20032;-76
2021/05/20 09:22:07;;;;;;;0.75;0.20;;;18.90;51.00;;;;;;5034361;28;20039;-77
2021/05/20 09:24:49;;;;;;;0.30;0.30;;;18.90;52.70;;;;;;5053569;28;20029;-77
2021/05/20 09:27:37;;;;;;;0.25;0.20;;;18.80;53.90;;;;;;5053445;28;20020;-76
2021/05/20 09:30:24;;;;;;;1.88;0.30;;;18.90;54.20;;;;;;5035480;28;20479;-76
2021/05/20 09:33:00;;;;;;;2.50;0.30;;;18.90;57.60;;;;;;5053014;28;20021;-76
2021/05/20 09:35:28;;;;;;;0.30;0.30;;;19.00;55.30;;;;;;5053200;28;20380;-77
2021/05/20 09:38:09;;;;;;;0.40;0.40;;;18.90;56.20;;;;;;5053278;28;20056;-77
2021/05/20 09:40:48;;;;;;;0.55;0.35;;;19.00;54.70;;;;;;5053448;28;20049;-77
2021/05/20 09:43:21;;;;;;;0.40;0.40;;;19.10;56.50;;;;;;5052974;28;20032;-77
2021/05/20 09:45:50;;;;;;;0.30;0.30;;;19.20;54.90;;;;;;5035423;28;20482;-77
2021/05/20 09:48:17;;;;;;;1.38;0.40;;;19.40;52.00;;;;;;5035362;28;20025;-76
2021/05/20 09:50:48;;;;;;;0.70;0.30;;;19.30;54.50;;;;;;5035266;28;20513;-77
2021/05/20 09:53:22;;;;;;;0.28;0.20;;;19.50;53.60;;;;;;5053191;28;20426;-77
2021/05/20 09:55:52;;;;;;;0.32;0.32;;;19.40;50.40;;;;;;5035046;28;20033;-77
2021/05/20 09:58:19;;;;;;;0.85;0.60;;;19.40;54.10;;;;;;5053196;28;20021;-77
2021/05/20 10:00:45;;;;;;;1.08;0.30;;;19.50;50.90;;;;;;5052842;28;20032;-78
2021/05/20 10:03:15;;;;;;;4.38;0.50;;;19.50;54.40;;;;;;5053113;28;20021;-78
2021/05/20 10:05:43;;;;;;;0.95;0.60;;;19.50;52.30;;;;;;5053091;28;20034;-78
2021/05/20 10:08:13;;;;;;;1.90;0.40;;;19.60;53.10;;;;;;5053259;28;20074;-78
2021/05/20 10:10:45;;;;;;;5.32;0.45;;;19.70;51.50;;;;;;5051633;28;20105;-77
2021/05/20 10:13:14;;;;;;;0.57;0.38;;;19.70;55.30;;;;;;5040278;28;20026;-77
2021/05/20 10:15:40;;;;;;;0.77;0.43;;;19.80;56.70;;;;;;5037925;28;20075;-78
2021/05/20 10:18:09;;;;;;;1.20;0.38;;;19.80;52.10;;;;;;5020439;28;20028;-78
2021/05/20 10:20:35;;;;;;;0.43;0.40;;;19.90;52.70;;;;;;5038499;28;20766;-77
2021/05/20 10:23:05;;;;;;;0.98;0.30;;;19.90;50.80;;;;;;5022312;28;20049;-77
2021/05/20 10:25:31;;;;;;;0.10;0.10;;;20.10;53.10;;;;;;5038956;28;20027;-77
2021/05/20 10:27:58;;;;;;;0.70;0.52;;;20.20;53.70;;;;;;5037746;28;20017;-78
2021/05/20 10:30:25;;;;;;;0.10;0.10;;;20.30;53.30;;;;;;5038742;28;20029;-77
2021/05/20 10:32:56;;;;;;;0.32;0.30;;;20.50;52.20;;;;;;5034258;28;20060;-79
2021/05/20 10:35:22;;;;;;;1.00;0.55;;;20.60;50.20;;;;;;5036569;28;20040;-77
2021/05/20 10:37:58;;;;;;;0.50;0.30;;;20.70;50.00;;;;;;5021916;28;20393;-77
2021/05/20 10:40:24;;;;;;;0.40;0.30;;;20.80;50.50;;;;;;5041060;28;20048;-78
2021/05/20 10:43:02;;;;;;;1.33;0.28;;;20.70;47.60;;;;;;5021294;28;20021;-79
2021/05/20 10:45:28;;;;;;;2.72;0.60;;;20.90;50.10;;;;;;5038855;28;20080;-78
2021/05/20 10:48:02;;;;;;;0.25;0.20;;;21.10;50.40;;;;;;5037763;28;20029;-77
2021/05/20 10:50:50;;;;;;;1.10;0.55;;;21.20;50.10;;;;;;5043735;28;20039;-78
2021/05/20 10:53:37;;;;;;;0.50;0.28;;;21.30;47.90;;;;;;5049493;28;20033;-77
2021/05/20 10:56:07;;;;;;;0.60;0.60;;;21.20;47.40;;;;;;5050419;28;20025;-76
2021/05/20 10:58:36;;;;;;;0.30;0.30;;;21.20;50.20;;;;;;5055820;28;20086;-76
2021/05/20 11:01:05;;;;;;;0.20;0.20;;;21.10;49.20;;;;;;5055973;28;20378;-76
2021/05/20 11:03:49;;;;;;;0.22;0.20;;;21.20;51.70;;;;;;5046580;28;20028;-76
2021/05/20 11:06:16;;;;;;;0.95;0.68;;;21.40;48.90;;;;;;5035622;28;20026;-76
2021/05/20 11:08:42;;;;;;;0.30;0.30;;;21.40;48.30;;;;;;5054282;28;20017;-76
2021/05/20 11:11:35;;;;;;;0.25;0.25;;;21.40;47.20;;;;;;5043823;28;20031;-76
2021/05/20 11:14:03;;;;;;;1.52;0.35;;;21.40;48.20;;;;;;5035678;28;20108;-75
2021/05/20 11:16:36;;;;;;;2.30;0.70;;;21.50;49.20;;;;;;5035697;28;20037;-78
2021/05/20 11:22:03;;;;;;;0.30;0.30;;;21.50;46.90;;;;;;5035617;28;20025;-77
2021/05/20 11:24:33;;;;;;;0.30;0.30;;;21.60;45.30;;;;;;5017798;28;20036;-75
2021/05/20 11:27:04;;;;;;;2.03;0.22;;;21.70;46.60;;;;;;5017371;28;20490;-76
2021/05/20 11:29:35;;;;;;;2.28;0.20;;;21.70;43.60;;;;;;5035247;28;20032;-76
2021/05/20 11:37:08;;;;;;;0.20;0.20;;;21.90;46.90;;;;;;5032504;28;20462;-76
2021/05/20 11:39:34;;;;;;;0.88;0.20;;;22.20;46.60;;;;;;5031462;28;20465;-77
2021/05/20 11:42:04;;;;;;;1.38;0.30;;;22.30;41.00;;;;;;5047109;28;20032;-78
2021/05/20 11:44:30;;;;;;;0.20;0.20;;;22.30;42.00;;;;;;5039483;28;20014;-78
2021/05/20 11:47:02;;;;;;;0.30;0.30;;;22.20;39.20;;;;;;5038681;28;20032;-79
2021/05/20 11:49:29;;;;;;;3.42;0.28;;;22.30;41.90;;;;;;5041149;28;20034;-77
2021/05/20 11:51:55;;;;;;;0.75;0.28;;;22.40;42.70;;;;;;5039978;28;20025;-77
2021/05/20 11:54:23;;;;;;;2.38;0.50;;;22.50;41.60;;;;;;5040182;28;20021;-77
2021/05/20 11:56:54;;;;;;;0.30;0.30;;;22.60;40.70;;;;;;5047039;28;20613;-77
2021/05/20 11:59:38;;;;;;;0.20;0.20;;;22.50;42.60;;;;;;5039137;28;20111;-75
2021/05/20 12:02:07;;;;;;;1.35;0.30;;;22.70;41.00;;;;;;5033336;28;20013;-76
2021/05/20 12:04:34;;;;;;;0.20;0.10;;;22.80;41.50;;;;;;5042573;28;20021;-76
2021/05/20 12:07:01;;;;;;;0.25;0.25;;;22.80;37.20;;;;;;5046308;28;20490;-76
2021/05/20 12:09:28;;;;;;;0.20;0.20;;;22.90;36.10;;;;;;5046677;28;20021;-76
2021/05/20 12:11:54;;;;;;;0.28;0.25;;;22.90;37.70;;;;;;5048817;28;20033;-75
2021/05/20 12:14:30;;;;;;;1.60;0.30;;;23.10;38.00;;;;;;5048661;28;20033;-75
2021/05/20 12:17:01;;;;;;;0.20;0.20;;;23.00;33.80;;;;;;5048556;28;20021;-75
2021/05/20 12:19:29;;;;;;;0.47;0.43;;;23.00;35.00;;;;;;5032580;28;20029;-75
2021/05/20 12:22:05;;;;;;;0.30;0.30;;;23.10;34.20;;;;;;5053642;28;20017;-76
2021/05/20 12:24:35;;;;;;;3.38;0.40;;;23.30;38.20;;;;;;5053231;28;20478;-76
2021/05/20 12:27:12;;;;;;;0.47;0.30;;;23.40;38.80;;;;;;5051646;28;20083;-76
2021/05/20 12:29:40;;;;;;;0.50;0.30;;;23.50;35.60;;;;;;5033462;28;20033;-75
2021/05/20 12:32:06;;;;;;;0.38;0.38;;;23.60;34.20;;;;;;5033256;28;20033;-76
2021/05/20 12:34:32;;;;;;;0.20;0.20;;;23.70;32.50;;;;;;5033475;28;20029;-76
2021/05/20 12:37:03;;;;;;;0.20;0.20;;;23.60;32.30;;;;;;5033361;28;20220;-75
2021/05/20 12:39:29;;;;;;;0.28;0.20;;;23.60;32.00;;;;;;5031874;28;20438;-75
2021/05/20 12:41:55;;;;;;;0.30;0.30;;;23.70;33.20;;;;;;5033995;28;20049;-75
2021/05/20 12:44:21;;;;;;;0.30;0.25;;;23.70;29.70;;;;;;5053036;28;20103;-76
2021/05/20 12:46:46;;;;;;;0.20;0.20;;;23.90;32.20;;;;;;5052069;28;20028;-76
2021/05/20 12:49:20;;;;;;;0.30;0.30;;;23.80;31.30;;;;;;5053098;28;20545;-75
2021/05/20 12:51:57;;;;;;;0.30;0.30;;;24.10;32.40;;;;;;5053085;28;20391;-76
2021/05/20 12:54:28;;;;;;;1.63;0.60;;;24.00;31.00;;;;;;5052935;28;20032;-76
2021/05/20 12:57:05;;;;;;;0.60;0.60;;;24.20;31.80;;;;;;5052724;28;20490;-75
2021/05/20 12:59:41;;;;;;;3.03;1.17;;;24.20;31.60;;;;;;5052752;28;20025;-75
2021/05/20 13:02:07;;;;;;;2.03;0.93;;;24.20;32.20;;;;;;5052807;28;20356;-76
2021/05/20 13:04:34;;;;;;;1.23;1.13;;;24.40;34.80;;;;;;5052497;28;20475;-76
2021/05/20 13:07:15;;;;;;;2.13;1.88;;;24.40;34.60;;;;;;5052605;28;20134;-76
2021/05/20 13:09:45;;;;;;;2.50;2.30;;;24.50;35.00;;;;;;5052541;28;20025;-76
2021/05/20 13:12:14;;;;;;;2.03;1.92;;;24.50;34.30;;;;;;5052527;28;20490;-76